createdAt,value
2023-01-05T00:01:01.688Z,8.259277
2023-01-05T00:04:27.014Z,8.259277
2023-01-05T00:07:52.275Z,8.218994
2023-01-05T00:11:17.616Z,8.28949
2023-01-05T00:14:43.038Z,8.299561
2023-01-05T00:18:08.293Z,8.380127
2023-01-05T00:21:33.561Z,8.430481
2023-01-05T00:24:58.922Z,8.430481
2023-01-05T00:28:24.290Z,8.470764
2023-01-05T00:31:49.656Z,8.450623
2023-01-05T00:35:14.852Z,8.450623
2023-01-05T00:38:40.170Z,8.500977
2023-01-05T00:42:05.506Z,8.551331
2023-01-05T00:45:30.822Z,8.480835
2023-01-05T00:48:56.070Z,8.500977
2023-01-05T00:52:21.393Z,8.470764
2023-01-05T00:55:46.654Z,8.470764
2023-01-05T00:59:11.937Z,8.450623
2023-01-05T01:02:37.244Z,8.450623
2023-01-05T01:06:02.616Z,8.480835
2023-01-05T01:09:27.877Z,8.430481
2023-01-05T01:12:53.231Z,8.370056
2023-01-05T01:16:18.691Z,8.380127
2023-01-05T01:19:44.097Z,8.410339
2023-01-05T01:23:09.467Z,8.410339
2023-01-05T01:26:34.785Z,8.450623
2023-01-05T01:30:00.116Z,8.440552
2023-01-05T01:33:25.487Z,8.500977
2023-01-05T01:36:50.864Z,8.531189
2023-01-05T01:40:16.305Z,8.531189
2023-01-05T01:43:41.580Z,8.531189
2023-01-05T01:47:06.916Z,8.551331
2023-01-05T01:50:32.373Z,8.581543
2023-01-05T01:53:57.756Z,8.521118
2023-01-05T01:57:23.111Z,8.551331
2023-01-05T02:00:48.480Z,8.561401
2023-01-05T02:04:13.958Z,8.611755
2023-01-05T02:07:40.231Z,8.591614
2023-01-05T02:11:05.592Z,8.621826
2023-01-05T02:14:31.008Z,8.631897
2023-01-05T02:17:56.240Z,8.631897
2023-01-05T02:21:21.623Z,8.621826
2023-01-05T02:24:46.949Z,8.662109
2023-01-05T02:28:12.174Z,8.712463
2023-01-05T02:31:37.509Z,8.732605
2023-01-05T02:35:02.769Z,8.742676
2023-01-05T02:38:28.046Z,8.742676
2023-01-05T02:41:53.349Z,8.803101
2023-01-05T02:45:18.675Z,8.803101
2023-01-05T02:48:43.980Z,8.79303
2023-01-05T02:52:09.221Z,8.732605
2023-01-05T02:55:34.543Z,8.662109
2023-01-05T02:58:59.814Z,8.662109
2023-01-05T03:02:25.200Z,8.732605
2023-01-05T03:05:50.343Z,8.762817
2023-01-05T03:09:15.583Z,8.732605
2023-01-05T03:12:40.878Z,8.762817
2023-01-05T03:16:06.164Z,8.79303
2023-01-05T03:19:31.395Z,8.863525
2023-01-05T03:22:56.710Z,8.772888
2023-01-05T03:26:21.954Z,8.742676
2023-01-05T03:29:47.219Z,8.652039
2023-01-05T03:33:12.462Z,8.621826
2023-01-05T03:36:37.713Z,8.581543
2023-01-05T03:40:02.998Z,8.551331
2023-01-05T03:43:28.228Z,8.470764
2023-01-05T03:46:53.487Z,8.370056
2023-01-05T03:50:18.735Z,8.339844
2023-01-05T03:53:44.003Z,8.299561
2023-01-05T03:57:09.287Z,8.229065
2023-01-05T04:00:34.531Z,8.148499
2023-01-05T04:03:59.899Z,8.178711
2023-01-05T04:07:25.097Z,8.148499
2023-01-05T04:10:50.356Z,8.148499
2023-01-05T04:14:15.639Z,8.148499
2023-01-05T04:17:40.885Z,8.118286
2023-01-05T04:21:06.160Z,8.078003
2023-01-05T04:24:31.385Z,8.047791
2023-01-05T04:27:56.651Z,8.158569
2023-01-05T04:31:21.989Z,8.188782
2023-01-05T04:34:47.730Z,8.188782
2023-01-05T04:38:14.250Z,8.158569
2023-01-05T04:41:39.625Z,8.198853
2023-01-05T04:45:04.927Z,8.198853
2023-01-05T04:48:30.245Z,8.218994
2023-01-05T04:51:55.589Z,8.148499
2023-01-05T04:55:20.871Z,8.047791
2023-01-05T04:58:46.158Z,8.03772
2023-01-05T05:02:11.615Z,8.007507
2023-01-05T05:05:36.834Z,7.947083
2023-01-05T05:09:02.164Z,7.997437
2023-01-05T05:12:27.495Z,8.007507
2023-01-05T05:15:53.088Z,7.977295
2023-01-05T05:19:18.538Z,7.967224
2023-01-05T05:22:43.901Z,7.926941
2023-01-05T05:26:09.223Z,7.846375
2023-01-05T05:29:34.599Z,7.866516
2023-01-05T05:32:59.964Z,7.78595
2023-01-05T05:36:25.254Z,7.735596
2023-01-05T05:39:50.616Z,7.78595
2023-01-05T05:43:15.885Z,7.796021
2023-01-05T05:46:41.310Z,7.735596
2023-01-05T05:50:06.627Z,7.735596
2023-01-05T05:53:31.861Z,7.796021
2023-01-05T05:56:57.305Z,7.745667
2023-01-05T06:00:22.598Z,7.735596
2023-01-05T06:03:47.990Z,7.765808
2023-01-05T06:07:13.250Z,7.745667
2023-01-05T06:10:38.649Z,7.765808
2023-01-05T06:14:04.467Z,7.796021
2023-01-05T06:17:29.712Z,7.816162
2023-01-05T06:20:59.561Z,7.856445
2023-01-05T06:24:20.360Z,7.856445
2023-01-05T06:27:45.632Z,7.856445
2023-01-05T06:31:10.947Z,7.826233
2023-01-05T06:34:36.193Z,7.856445
2023-01-05T06:38:02.348Z,7.926941
2023-01-05T06:41:27.675Z,7.967224
2023-01-05T06:44:52.972Z,7.997437
2023-01-05T06:48:18.340Z,7.947083
2023-01-05T06:51:43.657Z,7.896729
2023-01-05T06:55:09.521Z,7.886658
2023-01-05T06:58:34.861Z,7.826233
2023-01-05T07:02:00.500Z,7.846375
2023-01-05T07:05:26.331Z,7.765808
2023-01-05T07:08:54.260Z,7.856445
2023-01-05T07:12:23.927Z,8.03772
2023-01-05T07:15:56.087Z,8.218994
2023-01-05T07:45:27.444Z,8.299561
2023-01-05T07:49:23.817Z,8.218994
2023-01-05T07:53:27.756Z,8.047791
2023-01-05T07:57:11.576Z,7.886658
2023-01-05T08:00:36.889Z,7.796021
2023-01-05T08:04:02.266Z,7.735596
2023-01-05T08:07:27.503Z,7.765808
2023-01-05T08:10:54.178Z,7.765808
2023-01-05T08:14:19.611Z,7.78595
2023-01-05T08:17:45.182Z,7.705383
2023-01-05T08:21:10.695Z,7.78595
2023-01-05T08:24:36.563Z,7.745667
2023-01-05T08:28:02.184Z,7.765808
2023-01-05T08:31:27.570Z,7.745667
2023-01-05T08:34:55.486Z,7.78595
2023-01-05T08:38:18.255Z,8.067932
2023-01-05T08:41:43.634Z,8.279419
2023-01-05T08:45:09.041Z,8.430481
2023-01-05T08:48:34.351Z,8.249207
2023-01-05T08:51:59.799Z,8.108215
2023-01-05T08:55:25.082Z,8.098145
2023-01-05T08:58:50.338Z,7.926941
2023-01-05T09:02:18.973Z,7.896729
2023-01-05T09:05:40.926Z,7.856445
2023-01-05T09:09:06.221Z,7.816162
2023-01-05T09:12:33.288Z,7.78595
2023-01-05T09:15:56.690Z,7.765808
2023-01-05T09:19:21.950Z,7.735596
2023-01-05T09:22:47.203Z,7.78595
2023-01-05T09:26:12.441Z,7.705383
2023-01-05T09:29:37.655Z,7.816162
2023-01-05T09:33:02.878Z,7.816162
2023-01-05T09:36:28.124Z,7.846375
2023-01-05T09:39:53.363Z,7.926941
2023-01-05T09:43:18.720Z,7.896729
2023-01-05T09:46:43.882Z,7.896729
2023-01-05T09:50:09.141Z,7.826233
2023-01-05T09:53:34.389Z,7.78595
2023-01-05T09:57:14.878Z,7.796021
2023-01-05T10:00:24.965Z,7.765808
2023-01-05T10:04:05.632Z,7.816162
2023-01-05T10:07:15.323Z,7.856445
2023-01-05T10:10:40.547Z,7.846375
2023-01-05T10:14:05.787Z,7.967224
2023-01-05T10:17:40.907Z,8.007507
2023-01-05T10:20:56.329Z,7.997437
2023-01-05T10:24:21.710Z,8.007507
2023-01-05T10:27:49.590Z,8.078003
2023-01-05T10:31:12.394Z,8.108215
2023-01-05T10:34:37.679Z,8.148499
2023-01-05T10:38:02.901Z,8.178711
2023-01-05T10:41:28.212Z,8.198853
2023-01-05T10:44:53.520Z,8.188782
2023-01-05T10:48:18.778Z,8.229065
2023-01-05T10:51:44.205Z,8.279419
2023-01-05T10:55:09.395Z,8.329773
2023-01-05T10:58:34.754Z,8.329773
2023-01-05T11:02:00.513Z,8.279419
2023-01-05T11:05:25.773Z,8.229065
2023-01-05T11:08:51.153Z,8.259277
2023-01-05T11:12:16.415Z,8.259277
2023-01-05T11:15:41.748Z,8.229065
2023-01-05T11:19:06.929Z,8.299561
2023-01-05T11:22:32.193Z,8.218994
2023-01-05T11:25:57.582Z,8.218994
2023-01-05T11:29:22.711Z,8.198853
2023-01-05T11:32:47.961Z,8.047791
2023-01-05T11:36:13.216Z,7.997437
2023-01-05T11:39:38.481Z,8.017578
2023-01-05T11:43:03.880Z,7.947083
2023-01-05T11:46:29.036Z,7.997437
2023-01-05T11:49:58.440Z,8.007507
2023-01-05T11:53:19.551Z,8.118286
2023-01-05T11:56:44.839Z,8.148499
2023-01-05T12:00:11.570Z,8.259277
2023-01-05T12:03:36.735Z,8.218994
2023-01-05T12:07:02.252Z,8.229065
2023-01-05T12:10:27.535Z,8.148499
2023-01-05T12:13:52.784Z,8.078003
2023-01-05T12:17:18.201Z,8.108215
2023-01-05T12:20:43.528Z,8.218994
2023-01-05T12:24:08.940Z,8.329773
2023-01-05T12:27:34.237Z,8.480835
2023-01-05T12:34:25.004Z,8.440552
2023-01-05T12:37:50.233Z,8.329773
2023-01-05T12:41:15.603Z,8.249207
2023-01-05T12:44:40.936Z,8.158569
2023-01-05T12:48:07.108Z,8.158569
2023-01-05T12:51:32.583Z,8.158569
2023-01-05T12:54:57.887Z,8.198853
2023-01-05T12:58:24.186Z,8.229065
2023-01-05T13:01:49.723Z,8.259277
2023-01-05T13:05:14.980Z,8.229065
2023-01-05T13:08:40.485Z,8.28949
2023-01-05T13:12:05.749Z,8.370056
2023-01-05T13:15:31.135Z,8.400269
2023-01-05T13:18:56.481Z,8.410339
2023-01-05T13:22:21.856Z,8.28949
2023-01-05T13:25:47.362Z,8.218994
2023-01-05T13:29:12.571Z,8.188782
2023-01-05T13:32:37.934Z,8.229065
2023-01-05T13:36:03.248Z,8.249207
2023-01-05T13:39:28.518Z,8.198853
2023-01-05T13:42:54.068Z,8.158569
2023-01-05T13:46:19.272Z,8.078003
2023-01-05T13:49:44.674Z,8.108215
2023-01-05T13:53:09.907Z,8.198853
2023-01-05T13:56:35.187Z,8.178711
2023-01-05T14:00:06.812Z,8.229065
2023-01-05T14:03:25.954Z,8.279419
2023-01-05T14:06:51.254Z,8.28949
2023-01-05T14:10:16.516Z,8.229065
2023-01-05T14:13:41.801Z,8.218994
2023-01-05T14:17:07.187Z,8.198853
2023-01-05T14:20:32.355Z,8.108215
2023-01-05T14:23:57.603Z,8.067932
2023-01-05T14:27:22.941Z,8.017578
2023-01-05T14:30:48.231Z,8.017578
2023-01-05T15:06:09.263Z,7.91687
2023-01-05T15:09:34.379Z,7.826233
2023-01-05T15:12:59.639Z,7.735596
2023-01-05T15:16:24.909Z,7.6651
2023-01-05T15:19:50.146Z,7.614746
2023-01-05T15:23:15.533Z,7.53418
2023-01-05T15:26:40.649Z,7.574463
2023-01-05T15:30:05.898Z,7.584534
2023-01-05T15:33:31.165Z,7.614746
2023-01-05T15:36:56.423Z,7.675171
2023-01-05T15:40:21.892Z,7.735596
2023-01-05T15:43:46.908Z,7.705383
2023-01-05T15:47:12.187Z,7.715454
2023-01-05T15:50:37.424Z,7.715454
2023-01-05T15:54:02.723Z,7.6651
2023-01-05T15:57:28.089Z,7.644958
2023-01-05T16:00:53.283Z,7.644958
2023-01-05T16:04:18.501Z,7.554321
2023-01-05T16:07:43.789Z,7.483826
2023-01-05T16:11:09.021Z,7.373047
2023-01-05T16:14:34.414Z,7.322693
2023-01-05T16:17:59.545Z,7.272339
2023-01-05T16:21:25.096Z,7.302551
2023-01-05T16:24:50.104Z,7.272339
2023-01-05T16:28:15.359Z,7.242126
2023-01-05T16:31:40.757Z,7.232056
2023-01-05T16:35:05.885Z,7.211914
2023-01-05T16:38:31.137Z,7.211914
2023-01-05T16:41:56.401Z,7.171631
2023-01-05T16:45:21.656Z,7.232056
2023-01-05T16:48:47.052Z,7.211914
2023-01-05T16:52:12.299Z,7.211914
2023-01-05T16:55:37.385Z,7.342834
2023-01-05T16:59:02.639Z,7.352905
2023-01-05T17:02:27.905Z,7.242126
2023-01-05T17:05:53.347Z,7.272339
2023-01-05T17:09:18.486Z,7.211914
2023-01-05T17:12:43.825Z,7.16156
2023-01-05T17:16:08.993Z,7.16156
2023-01-05T17:19:34.268Z,7.131348
2023-01-05T17:22:59.651Z,7.151489
2023-01-05T17:26:24.845Z,7.101135
2023-01-05T17:29:50.079Z,7.091064
2023-01-05T17:33:15.414Z,7.121277
2023-01-05T17:36:40.671Z,7.121277
2023-01-05T17:40:06.098Z,7.050781
2023-01-05T17:43:31.155Z,7.070923
2023-01-05T17:46:56.382Z,7.101135
2023-01-05T17:50:21.640Z,7.151489
2023-01-05T17:53:46.895Z,7.201843
2023-01-05T17:57:29.262Z,7.242126
2023-01-05T18:01:01.303Z,7.242126
2023-01-05T18:04:27.230Z,7.272339
2023-01-05T18:07:51.803Z,7.272339
2023-01-05T18:11:17.674Z,7.242126
2023-01-05T18:14:42.648Z,7.302551
2023-01-05T18:18:07.794Z,7.302551
2023-01-05T18:25:01.879Z,7.272339
2023-01-05T18:28:27.151Z,7.28241
2023-01-05T18:31:52.545Z,7.302551
2023-01-05T18:35:17.663Z,7.322693
2023-01-05T18:38:42.942Z,7.352905
2023-01-05T18:42:08.166Z,7.433472
2023-01-05T18:45:39.039Z,7.463684
2023-01-05T18:48:58.846Z,7.503967
2023-01-05T18:52:23.926Z,7.53418
2023-01-05T18:55:49.188Z,7.524109
2023-01-05T18:59:14.423Z,7.503967
2023-01-05T19:02:39.680Z,7.453613
2023-01-05T19:06:05.066Z,7.524109
2023-01-05T19:09:30.176Z,7.503967
2023-01-05T19:12:55.431Z,7.584534
2023-01-05T19:16:20.773Z,7.584534
2023-01-05T19:19:45.960Z,7.604675
2023-01-05T19:23:11.307Z,7.604675
2023-01-05T19:26:36.421Z,7.634888
2023-01-05T19:30:01.728Z,7.634888
2023-01-05T19:33:26.948Z,7.745667
2023-01-05T19:36:52.171Z,7.745667
2023-01-05T19:40:17.566Z,7.715454
2023-01-05T19:43:42.660Z,7.685242
2023-01-05T19:47:07.915Z,7.644958
2023-01-05T19:50:33.165Z,7.675171
2023-01-05T19:53:58.422Z,7.644958
2023-01-05T19:57:23.950Z,7.604675
2023-01-05T20:00:49.072Z,7.604675
2023-01-05T20:04:14.319Z,7.554321
2023-01-05T20:07:39.538Z,7.524109
2023-01-05T20:11:04.777Z,7.554321
2023-01-05T20:14:30.161Z,7.503967
2023-01-05T20:17:55.396Z,7.453613
2023-01-05T20:21:20.751Z,7.403259
2023-01-05T20:24:46.024Z,7.453613
2023-01-05T20:28:11.259Z,7.433472
2023-01-05T20:31:36.699Z,7.423401
2023-01-05T20:35:01.792Z,7.342834
2023-01-05T20:38:27.059Z,7.242126
2023-01-05T20:41:52.324Z,7.151489
2023-01-05T20:45:17.577Z,7.060852
2023-01-05T20:48:42.960Z,7.050781
2023-01-05T20:52:08.087Z,6.919861
2023-01-05T20:55:33.337Z,6.849365
2023-01-05T20:58:58.576Z,6.768799
2023-01-05T21:02:24.770Z,6.728516
2023-01-05T21:05:49.104Z,6.65802
2023-01-05T21:09:14.324Z,6.708374
2023-01-05T21:12:39.552Z,6.668091
2023-01-05T21:16:04.874Z,6.65802
2023-01-05T21:19:30.066Z,6.65802
2023-01-05T21:22:55.407Z,6.799011
2023-01-05T21:26:20.540Z,6.90979
2023-01-05T21:29:45.811Z,6.990356
2023-01-05T21:33:11.047Z,7.03064
2023-01-05T21:36:36.301Z,6.970215
2023-01-05T21:40:01.601Z,7.03064
2023-01-05T21:43:26.760Z,6.980286
2023-01-05T21:46:52.015Z,6.90979
2023-01-05T21:50:17.273Z,6.90979
2023-01-05T21:53:42.497Z,6.849365
2023-01-05T21:57:07.844Z,6.799011
2023-01-05T22:00:32.999Z,6.839294
2023-01-05T22:03:58.271Z,6.849365
2023-01-05T22:07:23.463Z,6.799011
2023-01-05T22:10:48.706Z,6.799011
2023-01-05T22:14:14.065Z,6.809082
2023-01-05T22:17:39.179Z,6.809082
2023-01-05T22:21:04.434Z,6.879578
2023-01-05T22:24:29.664Z,6.839294
2023-01-05T22:27:54.907Z,6.889648
2023-01-05T22:31:20.324Z,6.879578
2023-01-05T22:34:45.394Z,6.970215
2023-01-05T22:38:10.613Z,6.990356
2023-01-05T22:41:35.849Z,7.060852
2023-01-05T22:45:01.123Z,7.060852
2023-01-05T22:48:26.455Z,7.03064
2023-01-05T22:51:51.576Z,7.03064
2023-01-05T22:55:16.819Z,7.070923
2023-01-05T22:58:42.071Z,7.16156
2023-01-05T23:02:07.361Z,7.211914
2023-01-05T23:05:32.642Z,7.312622
2023-01-05T23:08:57.760Z,7.352905
2023-01-05T23:12:22.997Z,7.342834
2023-01-05T23:15:48.242Z,7.342834
2023-01-05T23:19:13.500Z,7.322693
2023-01-05T23:22:38.848Z,7.393188
2023-01-05T23:26:03.958Z,7.393188
2023-01-05T23:29:29.200Z,7.393188
2023-01-05T23:32:54.451Z,7.342834
2023-01-05T23:36:19.682Z,7.312622
2023-01-05T23:39:45.050Z,7.373047
2023-01-05T23:43:10.173Z,7.242126
2023-01-05T23:46:35.401Z,7.232056
2023-01-05T23:50:00.669Z,7.272339
2023-01-05T23:53:25.908Z,7.373047
2023-01-05T23:56:51.260Z,7.342834
